Time;durP1;ratioP1;P1;durP2;ratioP2;P2;SDS_P1;SDS_P2;PMS_P1;PMS_P2;Temp;Humidity;BMP_temperature;BMP_pressure;BME280_temperature;BME280_humidity;BME280_pressure;Samples;Min_cycle;Max_cycle;Signal;HPM_P1;HPM_P2
2023/05/14 00:00:22;;;;;;;10.35;8.13;;;18.30;99.90;;;;;;6138130;23;20009;-92
2023/05/14 00:02:47;;;;;;;13.18;7.60;;;18.30;99.90;;;;;;6138594;23;20005;-93
2023/05/14 00:05:13;;;;;;;10.20;8.10;;;18.20;99.90;;;;;;6162607;23;20336;-93
2023/05/14 00:07:39;;;;;;;12.68;9.95;;;18.20;99.90;;;;;;6162432;23;20040;-93
2023/05/14 00:10:05;;;;;;;10.70;7.97;;;18.10;99.90;;;;;;6138929;23;20049;-89
2023/05/14 00:12:31;;;;;;;14.23;8.27;;;18.10;99.90;;;;;;6187992;23;20013;-91
2023/05/14 00:14:57;;;;;;;11.63;8.18;;;18.00;99.90;;;;;;6138023;23;20013;-91
2023/05/14 00:17:23;;;;;;;13.00;8.55;;;18.00;99.90;;;;;;6137873;23;20009;-91
2023/05/14 00:19:48;;;;;;;9.40;8.18;;;18.00;99.90;;;;;;6162367;23;20032;-89
2023/05/14 00:22:14;;;;;;;13.07;9.40;;;17.90;99.90;;;;;;6161948;23;20051;-89
2023/05/14 00:24:40;;;;;;;12.88;8.65;;;17.80;99.90;;;;;;6186347;23;20013;-90
2023/05/14 00:27:06;;;;;;;12.32;8.75;;;17.80;99.90;;;;;;6162055;23;20036;-91
2023/05/14 00:29:31;;;;;;;10.77;8.10;;;17.80;99.90;;;;;;6161726;23;20005;-91
2023/05/14 00:31:57;;;;;;;16.52;9.48;;;17.70;99.90;;;;;;6161960;23;20013;-91
2023/05/14 00:34:23;;;;;;;10.73;8.63;;;17.60;99.90;;;;;;6161849;23;20008;-91
2023/05/14 00:36:50;;;;;;;10.32;8.57;;;17.60;99.90;;;;;;6161712;23;20006;-91
2023/05/14 00:39:15;;;;;;;12.55;9.25;;;17.50;99.90;;;;;;6161928;23;20009;-91
2023/05/14 00:41:41;;;;;;;15.27;9.07;;;17.50;99.90;;;;;;6162075;23;20001;-91
2023/05/14 00:44:07;;;;;;;12.57;9.40;;;17.50;99.90;;;;;;6161438;23;20017;-89
2023/05/14 00:46:33;;;;;;;11.50;9.20;;;17.40;99.90;;;;;;6137595;23;20009;-91
2023/05/14 00:48:58;;;;;;;12.20;8.65;;;17.40;99.90;;;;;;6136870;23;20005;-91
2023/05/14 00:51:24;;;;;;;16.27;9.07;;;17.40;99.90;;;;;;6161556;23;20005;-90
2023/05/14 00:53:51;;;;;;;12.95;9.57;;;17.40;99.90;;;;;;6161378;23;20013;-90
2023/05/14 00:56:17;;;;;;;13.20;9.52;;;17.30;99.90;;;;;;6161682;23;20028;-88
2023/05/14 00:58:43;;;;;;;13.32;9.55;;;17.20;99.90;;;;;;6136691;23;20428;-89
2023/05/14 01:01:09;;;;;;;16.48;9.27;;;17.20;99.90;;;;;;6162045;23;20009;-92
2023/05/14 01:03:35;;;;;;;14.35;9.00;;;17.20;99.90;;;;;;6187055;23;20372;-92
2023/05/14 01:06:07;;;;;;;13.60;9.00;;;17.10;99.90;;;;;;6136969;23;20001;-92
2023/05/14 01:08:49;;;;;;;14.82;9.35;;;17.10;99.90;;;;;;6186614;23;20015;-93
2023/05/14 01:11:40;;;;;;;12.65;9.63;;;17.00;99.90;;;;;;6186194;23;20009;-92
2023/05/14 01:14:13;;;;;;;13.68;9.23;;;16.90;99.90;;;;;;6186728;23;20444;-93
2023/05/14 01:16:39;;;;;;;13.40;9.23;;;16.90;99.90;;;;;;6186433;23;20001;-88
2023/05/14 01:19:18;;;;;;;11.27;9.00;;;16.80;99.90;;;;;;6161000;23;20421;-90
2023/05/14 01:21:43;;;;;;;15.63;9.30;;;16.80;99.90;;;;;;6185809;23;19997;-90
2023/05/14 01:24:09;;;;;;;13.25;10.10;;;16.80;99.90;;;;;;6137715;23;20009;-91
2023/05/14 01:26:36;;;;;;;13.98;9.60;;;16.80;99.90;;;;;;6186904;23;20413;-91
2023/05/14 01:29:19;;;;;;;11.15;9.25;;;16.80;99.90;;;;;;6136662;23;20013;-89
2023/05/14 01:31:47;;;;;;;13.65;9.35;;;16.80;99.90;;;;;;6186307;23;20028;-90
2023/05/14 01:34:14;;;;;;;11.93;9.18;;;16.80;99.90;;;;;;6186260;23;20032;-89
2023/05/14 01:36:41;;;;;;;12.38;9.55;;;16.70;99.90;;;;;;6161256;23;20009;-89
2023/05/14 01:39:08;;;;;;;11.82;9.40;;;16.70;99.90;;;;;;6136426;23;20020;-89
2023/05/14 01:41:36;;;;;;;13.85;9.55;;;16.70;99.90;;;;;;6160877;23;20424;-89
2023/05/14 01:44:02;;;;;;;15.55;9.38;;;16.70;99.90;;;;;;6185512;23;20015;-90
2023/05/14 01:46:32;;;;;;;16.08;9.88;;;16.70;99.90;;;;;;6136350;23;20001;-89
2023/05/14 01:48:58;;;;;;;17.40;9.70;;;16.60;99.90;;;;;;6161160;23;20009;-94
2023/05/14 01:51:23;;;;;;;12.65;9.45;;;16.60;99.90;;;;;;6137220;23;20009;-94
2023/05/14 01:53:49;;;;;;;14.68;10.32;;;16.60;99.90;;;;;;6137852;23;20012;-93
2023/05/14 01:56:22;;;;;;;11.48;9.40;;;16.60;99.90;;;;;;6162568;23;20314;-94
2023/05/14 01:58:48;;;;;;;14.02;9.35;;;16.50;99.90;;;;;;6188172;23;20009;-94
2023/05/14 02:01:14;;;;;;;14.13;9.18;;;16.50;99.90;;;;;;6187911;23;20085;-94
2023/05/14 02:03:40;;;;;;;13.50;10.25;;;16.50;99.90;;;;;;6188603;23;20001;-92
2023/05/14 02:06:06;;;;;;;13.02;9.57;;;16.40;99.90;;;;;;6165939;23;20065;-90
2023/05/14 02:08:32;;;;;;;14.25;9.25;;;16.40;99.90;;;;;;6190489;23;20070;-90
2023/05/14 02:10:57;;;;;;;11.90;9.52;;;16.40;99.90;;;;;;6186923;23;20012;-91
2023/05/14 02:13:24;;;;;;;12.27;9.63;;;16.30;99.90;;;;;;6137945;23;20495;-91
2023/05/14 02:15:50;;;;;;;17.63;9.68;;;16.30;99.90;;;;;;6161801;23;20039;-91
2023/05/14 02:18:15;;;;;;;14.32;9.73;;;16.30;99.90;;;;;;6137525;23;20005;-91
2023/05/14 02:20:41;;;;;;;12.60;9.45;;;16.30;99.90;;;;;;6162035;23;20325;-91
2023/05/14 02:23:07;;;;;;;11.75;9.43;;;16.20;99.90;;;;;;6160986;23;20043;-90
2023/05/14 02:25:32;;;;;;;15.52;10.15;;;16.20;99.90;;;;;;6136097;23;20002;-90
2023/05/14 02:27:58;;;;;;;12.70;10.13;;;16.20;99.90;;;;;;6136173;23;20005;-90
2023/05/14 02:30:24;;;;;;;16.73;10.30;;;16.10;99.90;;;;;;6185586;23;20041;-91
2023/05/14 02:32:49;;;;;;;15.23;10.80;;;16.10;99.90;;;;;;6161318;23;20005;-91
2023/05/14 02:35:15;;;;;;;12.95;10.68;;;16.10;99.90;;;;;;6185552;23;20012;-91
2023/05/14 02:37:41;;;;;;;19.58;9.90;;;16.00;99.90;;;;;;6136252;23;20062;-91
2023/05/14 02:40:07;;;;;;;13.75;11.38;;;16.00;99.90;;;;;;6148596;23;20036;-89
2023/05/14 02:42:33;;;;;;;15.35;10.80;;;16.00;99.90;;;;;;6184064;23;20041;-88
2023/05/14 02:44:58;;;;;;;14.25;10.88;;;15.90;99.90;;;;;;6163672;23;20000;-90
2023/05/14 02:47:24;;;;;;;15.25;11.57;;;15.90;99.90;;;;;;6161286;23;20001;-89
2023/05/14 02:49:50;;;;;;;18.98;10.82;;;15.90;99.90;;;;;;6207262;23;20009;-91
2023/05/14 02:52:15;;;;;;;16.88;11.45;;;15.90;99.90;;;;;;6206819;23;20013;-90
2023/05/14 02:54:41;;;;;;;17.30;11.18;;;15.80;99.90;;;;;;6181355;23;20039;-89
2023/05/14 02:57:07;;;;;;;19.92;11.05;;;15.80;99.90;;;;;;6144740;23;20081;-88
2023/05/14 02:59:33;;;;;;;14.30;10.82;;;15.70;99.90;;;;;;6141626;23;20005;-90
2023/05/14 03:01:58;;;;;;;18.10;10.32;;;15.70;99.90;;;;;;6139994;23;20092;-90
2023/05/14 03:04:24;;;;;;;16.40;10.95;;;15.70;99.90;;;;;;6162915;23;20001;-90
2023/05/14 03:06:50;;;;;;;13.27;10.85;;;15.60;99.90;;;;;;6138099;23;20005;-90
2023/05/14 03:09:15;;;;;;;13.50;11.18;;;15.60;99.90;;;;;;6162349;23;20063;-90
2023/05/14 03:11:41;;;;;;;21.38;11.23;;;15.50;99.90;;;;;;6162683;23;20156;-90
2023/05/14 03:14:07;;;;;;;17.13;12.00;;;15.50;99.90;;;;;;6139485;23;20020;-93
2023/05/14 03:16:32;;;;;;;15.55;11.90;;;15.50;99.90;;;;;;6164264;23;20436;-94
2023/05/14 03:18:58;;;;;;;13.25;11.43;;;15.40;99.90;;;;;;6139170;23;20013;-94
2023/05/14 03:21:24;;;;;;;20.23;11.88;;;15.40;99.90;;;;;;6139755;23;20070;-95
2023/05/14 03:23:51;;;;;;;17.10;12.90;;;15.40;99.90;;;;;;6163386;23;20088;-91
2023/05/14 03:26:17;;;;;;;18.90;12.65;;;15.30;99.90;;;;;;6189421;23;20005;-93
2023/05/14 03:28:43;;;;;;;15.30;11.82;;;15.30;99.90;;;;;;6165472;23;20012;-92
2023/05/14 03:31:09;;;;;;;17.20;12.45;;;15.30;99.90;;;;;;6142797;23;20083;-94
2023/05/14 03:33:35;;;;;;;15.85;12.07;;;15.20;99.90;;;;;;6191518;23;20320;-93
2023/05/14 03:36:01;;;;;;;17.83;12.15;;;15.20;99.90;;;;;;6140026;23;20012;-92
2023/05/14 03:38:26;;;;;;;15.85;11.73;;;15.20;99.90;;;;;;6140271;23;20001;-93
2023/05/14 03:40:52;;;;;;;18.58;12.13;;;15.20;99.90;;;;;;6163327;23;20036;-92
2023/05/14 03:43:18;;;;;;;16.38;12.32;;;15.10;99.90;;;;;;6155794;23;20039;-90
2023/05/14 03:45:43;;;;;;;18.98;12.40;;;15.10;99.90;;;;;;6167873;23;20001;-93
2023/05/14 03:51:32;;;;;;;21.17;12.93;;;15.00;99.90;;;;;;6219866;23;20035;-91
2023/05/14 03:53:57;;;;;;;17.90;12.60;;;15.00;99.90;;;;;;6168041;23;20092;-91
2023/05/14 03:56:24;;;;;;;15.52;12.55;;;14.90;99.90;;;;;;6168577;23;20012;-94
2023/05/14 03:58:51;;;;;;;21.05;12.38;;;14.90;99.90;;;;;;6169030;23;20016;-94
2023/05/14 04:01:17;;;;;;;18.75;13.48;;;14.90;99.90;;;;;;6192275;23;20001;-90
2023/05/14 04:03:42;;;;;;;18.92;13.48;;;14.90;99.90;;;;;;6185000;23;19996;-92
2023/05/14 04:06:08;;;;;;;18.67;13.50;;;14.90;99.90;;;;;;6194556;23;20048;-91
2023/05/14 04:08:34;;;;;;;20.17;13.88;;;14.80;99.90;;;;;;6194526;23;19991;-90
2023/05/14 04:11:00;;;;;;;18.08;13.05;;;14.80;99.90;;;;;;6193961;23;19997;-91
2023/05/14 04:13:25;;;;;;;16.25;12.98;;;14.80;99.90;;;;;;6193757;23;19988;-90
2023/05/14 04:15:51;;;;;;;21.13;13.95;;;14.70;99.90;;;;;;6188926;22;20026;-91
2023/05/14 04:18:17;;;;;;;17.67;13.45;;;14.60;99.90;;;;;;6213752;23;20016;-90
2023/05/14 04:20:43;;;;;;;17.23;13.80;;;14.60;99.90;;;;;;6199151;23;20446;-91
2023/05/14 04:23:08;;;;;;;19.98;14.38;;;14.60;99.90;;;;;;6196698;23;20067;-91
2023/05/14 04:25:34;;;;;;;18.92;13.98;;;14.60;99.90;;;;;;6196343;23;20004;-91
2023/05/14 04:28:00;;;;;;;18.80;14.70;;;14.60;99.90;;;;;;6172630;23;20004;-92
2023/05/14 04:30:25;;;;;;;18.55;14.88;;;14.60;99.90;;;;;;6196304;23;20008;-92
2023/05/14 04:32:51;;;;;;;20.33;14.88;;;14.50;99.90;;;;;;6196441;23;20008;-92
2023/05/14 04:35:17;;;;;;;22.23;15.57;;;14.50;99.90;;;;;;6196513;23;20015;-91
2023/05/14 04:37:42;;;;;;;20.05;14.35;;;14.50;99.90;;;;;;6179520;23;20040;-91
2023/05/14 04:40:11;;;;;;;17.63;15.35;;;14.50;99.90;;;;;;6200352;23;20095;-90
2023/05/14 04:42:37;;;;;;;20.30;15.32;;;14.50;99.90;;;;;;6222127;23;19996;-90
2023/05/14 04:45:04;;;;;;;19.40;15.18;;;14.40;99.90;;;;;;6172482;23;20071;-92
2023/05/14 04:47:30;;;;;;;22.23;15.68;;;14.40;99.90;;;;;;6222159;23;20000;-90
2023/05/14 04:49:56;;;;;;;20.40;14.63;;;14.40;99.90;;;;;;6196781;23;20066;-90
2023/05/14 04:52:22;;;;;;;22.58;15.60;;;14.40;99.90;;;;;;6172482;23;20004;-90
2023/05/14 04:54:48;;;;;;;24.63;15.50;;;14.40;99.90;;;;;;6221259;23;20477;-89
2023/05/14 04:57:14;;;;;;;19.20;15.25;;;14.40;99.90;;;;;;6171540;23;20008;-88
2023/05/14 04:59:40;;;;;;;18.08;15.13;;;14.40;99.90;;;;;;6196334;23;20004;-90
2023/05/14 05:02:05;;;;;;;22.65;15.32;;;14.40;99.90;;;;;;6196108;23;20087;-90
2023/05/14 05:04:31;;;;;;;20.63;14.40;;;14.40;99.90;;;;;;6171550;23;20428;-90
2023/05/14 05:06:57;;;;;;;20.90;14.35;;;14.40;99.90;;;;;;6196442;23;20034;-90
2023/05/14 05:09:22;;;;;;;21.38;15.73;;;14.40;99.90;;;;;;6203456;23;20004;-91
2023/05/14 05:11:48;;;;;;;20.05;14.60;;;14.50;99.90;;;;;;6219556;23;20004;-91
2023/05/14 05:14:14;;;;;;;22.70;16.42;;;14.50;99.90;;;;;;6243736;23;20095;-91
2023/05/14 05:16:39;;;;;;;23.55;14.75;;;14.50;99.90;;;;;;6193977;23;20016;-92
2023/05/14 05:19:05;;;;;;;20.13;15.77;;;14.60;99.90;;;;;;6219489;23;20011;-92
2023/05/14 05:21:31;;;;;;;21.50;15.70;;;14.60;99.90;;;;;;6195601;23;20006;-91
2023/05/14 05:23:57;;;;;;;21.90;15.70;;;14.60;99.90;;;;;;6220687;23;20004;-91
2023/05/14 05:26:23;;;;;;;20.73;14.80;;;14.60;99.90;;;;;;6186343;23;20000;-89
2023/05/14 05:28:49;;;;;;;19.98;14.90;;;14.70;99.90;;;;;;6195936;23;20035;-90
2023/05/14 05:31:15;;;;;;;19.55;15.10;;;14.70;99.90;;;;;;6196979;23;20008;-90
2023/05/14 05:33:41;;;;;;;17.40;14.80;;;14.70;99.90;;;;;;6173419;23;20008;-90
2023/05/14 05:36:07;;;;;;;22.73;15.15;;;14.80;99.90;;;;;;6176287;23;20011;-89
2023/05/14 05:38:33;;;;;;;19.35;15.23;;;14.80;99.90;;;;;;6179132;23;20012;-90
2023/05/14 05:40:58;;;;;;;19.05;14.00;;;14.90;99.90;;;;;;6173299;23;20011;-91
2023/05/14 05:43:24;;;;;;;18.58;15.00;;;14.90;99.90;;;;;;6171203;23;20000;-90
2023/05/14 05:45:50;;;;;;;19.42;15.15;;;14.90;99.90;;;;;;6171626;23;20063;-91
2023/05/14 05:48:15;;;;;;;20.52;15.38;;;14.90;99.90;;;;;;6171790;23;20007;-92
2023/05/14 05:50:43;;;;;;;19.42;14.93;;;15.00;99.90;;;;;;6171639;23;20008;-92
2023/05/14 05:53:11;;;;;;;20.10;14.75;;;15.00;99.90;;;;;;6173218;23;20387;-92
2023/05/14 05:55:36;;;;;;;19.77;15.43;;;15.00;99.90;;;;;;6221646;23;20028;-92
2023/05/14 05:58:02;;;;;;;21.85;14.85;;;15.10;99.90;;;;;;6221259;23;20467;-91
2023/05/14 06:00:28;;;;;;;20.13;14.32;;;15.10;99.90;;;;;;6172187;23;20095;-93
2023/05/14 06:02:55;;;;;;;17.52;13.90;;;15.10;99.90;;;;;;6197530;23;20008;-92
2023/05/14 06:05:20;;;;;;;16.92;13.73;;;15.10;99.90;;;;;;6172570;23;20001;-93
2023/05/14 06:07:46;;;;;;;22.90;14.65;;;15.20;99.90;;;;;;6172328;23;20038;-92
2023/05/14 06:10:11;;;;;;;19.38;13.95;;;15.20;99.90;;;;;;6197154;23;20031;-92
2023/05/14 06:12:37;;;;;;;21.42;14.25;;;15.20;99.90;;;;;;6197293;23;20004;-92
2023/05/14 06:15:03;;;;;;;17.42;14.68;;;15.20;99.90;;;;;;6197024;23;20016;-91
2023/05/14 06:17:29;;;;;;;22.83;14.60;;;15.30;99.90;;;;;;6223515;23;20019;-90
2023/05/14 06:19:54;;;;;;;19.65;14.70;;;15.30;99.90;;;;;;6174195;23;20088;-90
2023/05/14 06:22:20;;;;;;;17.35;14.00;;;15.30;99.90;;;;;;6178509;23;20005;-90
2023/05/14 06:24:47;;;;;;;19.13;13.95;;;15.30;99.90;;;;;;6203401;23;20332;-91
2023/05/14 06:27:12;;;;;;;19.83;14.63;;;15.40;99.90;;;;;;6231331;23;19997;-89
2023/05/14 06:29:38;;;;;;;18.88;14.68;;;15.40;99.90;;;;;;6189693;23;20018;-90
2023/05/14 06:32:04;;;;;;;18.92;13.75;;;15.40;99.90;;;;;;6236677;23;20004;-89
2023/05/14 06:34:30;;;;;;;19.67;14.63;;;15.40;99.90;;;;;;6168554;23;20013;-92
2023/05/14 06:36:56;;;;;;;19.05;14.18;;;15.50;99.90;;;;;;6217861;23;20008;-92
2023/05/14 06:39:25;;;;;;;19.27;14.32;;;15.50;99.90;;;;;;6192440;23;20012;-91
2023/05/14 06:41:51;;;;;;;18.00;14.05;;;15.50;99.90;;;;;;6169219;23;20001;-91
2023/05/14 06:44:18;;;;;;;20.00;14.15;;;15.60;99.90;;;;;;6168161;23;20001;-93
2023/05/14 06:46:44;;;;;;;22.00;13.35;;;15.60;99.90;;;;;;6218464;23;20031;-93
2023/05/14 06:49:09;;;;;;;16.30;12.85;;;15.60;99.90;;;;;;6193798;23;20012;-92
2023/05/14 06:51:35;;;;;;;17.92;14.40;;;15.70;99.90;;;;;;6167394;23;20009;-91
2023/05/14 06:54:01;;;;;;;19.80;13.35;;;15.70;99.90;;;;;;6168994;23;20012;-90
2023/05/14 06:56:26;;;;;;;14.73;11.90;;;15.80;99.90;;;;;;6169617;23;20094;-91
2023/05/14 06:58:52;;;;;;;15.30;12.75;;;15.80;99.90;;;;;;6169488;23;20087;-91
2023/05/14 07:01:18;;;;;;;17.55;13.60;;;15.90;99.90;;;;;;6221750;23;20005;-92
2023/05/14 07:03:43;;;;;;;16.10;13.52;;;15.90;99.90;;;;;;6172265;23;20005;-92
2023/05/14 07:06:09;;;;;;;17.13;12.85;;;16.00;99.90;;;;;;6170481;23;20008;-90
2023/05/14 07:08:35;;;;;;;17.23;12.65;;;16.10;99.90;;;;;;6219709;23;19997;-89
2023/05/14 07:11:00;;;;;;;15.95;12.00;;;16.10;99.90;;;;;;6170020;23;20005;-89
2023/05/14 07:13:29;;;;;;;14.57;11.15;;;16.20;99.90;;;;;;6168460;23;20310;-89
2023/05/14 07:15:55;;;;;;;15.25;12.07;;;16.30;99.90;;;;;;6173191;23;20336;-90
2023/05/14 07:18:23;;;;;;;18.25;12.25;;;16.30;99.90;;;;;;6172407;23;20009;-91
2023/05/14 07:20:48;;;;;;;15.00;11.23;;;16.40;99.90;;;;;;6222294;23;20014;-89
2023/05/14 07:23:14;;;;;;;14.30;11.30;;;16.40;99.90;;;;;;6207280;23;20024;-91
2023/05/14 07:25:40;;;;;;;14.98;11.05;;;16.50;99.90;;;;;;6247143;23;20027;-91
2023/05/14 07:28:06;;;;;;;13.90;11.52;;;16.60;99.90;;;;;;6247316;23;20003;-92
2023/05/14 07:30:31;;;;;;;13.95;10.57;;;16.60;99.90;;;;;;6222331;23;19999;-91
2023/05/14 07:32:57;;;;;;;13.43;10.43;;;16.70;99.90;;;;;;6221916;23;20031;-91
2023/05/14 07:35:23;;;;;;;14.43;10.45;;;16.70;99.90;;;;;;6222354;23;20165;-91
2023/05/14 07:37:49;;;;;;;13.02;9.88;;;16.80;99.90;;;;;;6221683;23;19985;-91
2023/05/14 07:40:15;;;;;;;12.60;10.32;;;16.80;99.90;;;;;;6206598;23;20008;-90
2023/05/14 07:42:40;;;;;;;16.30;10.48;;;16.90;99.90;;;;;;6222180;23;20319;-90
2023/05/14 07:45:08;;;;;;;17.98;10.07;;;17.00;99.90;;;;;;6171404;23;20004;-90
2023/05/14 07:47:40;;;;;;;13.90;10.13;;;17.00;99.90;;;;;;6172769;23;20039;-89
2023/05/14 07:50:06;;;;;;;16.48;10.93;;;17.10;99.90;;;;;;6222111;23;20008;-90
2023/05/14 07:52:32;;;;;;;14.23;8.90;;;17.10;99.90;;;;;;6196883;23;20027;-90
2023/05/14 07:55:00;;;;;;;12.73;10.68;;;17.20;99.90;;;;;;6200385;23;20011;-90
2023/05/14 07:57:25;;;;;;;13.88;8.85;;;17.30;99.90;;;;;;6173374;23;20015;-89
2023/05/14 07:59:51;;;;;;;15.30;8.80;;;17.40;99.90;;;;;;6195671;23;20008;-87
2023/05/14 08:02:17;;;;;;;11.57;9.88;;;17.40;99.90;;;;;;6195913;23;20011;-88
2023/05/14 08:04:43;;;;;;;13.57;8.93;;;17.50;99.90;;;;;;6195963;23;20043;-88
2023/05/14 08:07:09;;;;;;;11.57;8.43;;;17.60;99.90;;;;;;6195544;23;20008;-87
2023/05/14 08:09:35;;;;;;;15.13;9.07;;;17.60;99.90;;;;;;6195519;23;20008;-88
2023/05/14 08:12:00;;;;;;;11.60;8.30;;;17.60;99.90;;;;;;6195842;23;20069;-89
2023/05/14 08:14:27;;;;;;;8.82;7.18;;;17.70;99.90;;;;;;6171301;23;20328;-89
2023/05/14 08:16:53;;;;;;;10.77;8.15;;;17.80;99.90;;;;;;6196313;23;20388;-88
2023/05/14 08:19:18;;;;;;;9.85;7.10;;;17.90;99.90;;;;;;6221030;23;20000;-88
2023/05/14 08:21:44;;;;;;;12.30;8.32;;;17.90;99.90;;;;;;6171217;23;20004;-89
2023/05/14 08:24:10;;;;;;;14.30;7.20;;;18.00;99.90;;;;;;6195972;23;20000;-88
2023/05/14 08:26:37;;;;;;;17.08;9.50;;;18.00;99.90;;;;;;6195900;23;20427;-90
2023/05/14 08:29:03;;;;;;;11.30;8.05;;;18.10;99.90;;;;;;6196237;23;20438;-88
2023/05/14 08:31:29;;;;;;;14.32;8.10;;;18.10;99.90;;;;;;6195707;23;20004;-88
2023/05/14 08:33:54;;;;;;;10.70;7.97;;;18.20;99.90;;;;;;6195856;23;20015;-89
2023/05/14 08:36:20;;;;;;;10.15;6.82;;;18.20;99.90;;;;;;6195912;23;20095;-89
2023/05/14 08:38:47;;;;;;;9.85;7.05;;;18.30;99.90;;;;;;6196037;23;20004;-89
2023/05/14 08:41:14;;;;;;;10.02;6.97;;;18.40;99.90;;;;;;6171536;23;20000;-89
2023/05/14 08:43:56;;;;;;;10.00;6.85;;;18.40;99.90;;;;;;6220742;23;20000;-89
2023/05/14 08:46:23;;;;;;;11.85;6.13;;;18.40;99.90;;;;;;6198762;23;20370;-88
2023/05/14 08:48:59;;;;;;;8.70;6.07;;;18.50;99.90;;;;;;6195878;23;20009;-89
2023/05/14 08:51:26;;;;;;;9.35;6.55;;;18.50;99.90;;;;;;6220953;23;20000;-89
2023/05/14 08:53:52;;;;;;;10.20;7.07;;;18.60;99.90;;;;;;6196351;23;20012;-89
2023/05/14 08:56:18;;;;;;;8.18;5.90;;;18.60;99.90;;;;;;6170785;23;20012;-90
2023/05/14 08:58:44;;;;;;;8.52;6.60;;;18.70;99.90;;;;;;6220826;23;20008;-89
2023/05/14 09:01:10;;;;;;;10.77;6.15;;;18.70;99.90;;;;;;6195827;23;20447;-89
2023/05/14 09:03:36;;;;;;;10.57;5.88;;;18.70;99.90;;;;;;6221276;23;20043;-89
2023/05/14 09:06:03;;;;;;;8.20;5.95;;;18.80;99.90;;;;;;6196055;23;20326;-90
2023/05/14 09:08:28;;;;;;;9.52;5.68;;;18.90;99.90;;;;;;6220819;23;20423;-87
2023/05/14 09:10:54;;;;;;;11.13;5.65;;;18.90;99.90;;;;;;6170335;23;20011;-87
2023/05/14 09:13:20;;;;;;;11.60;5.22;;;19.00;99.90;;;;;;6195268;23;20004;-87
2023/05/14 09:15:48;;;;;;;7.30;5.22;;;19.00;99.90;;;;;;6194999;23;20008;-88
2023/05/14 09:18:13;;;;;;;7.43;4.78;;;19.10;99.90;;;;;;6247339;23;20071;-87
2023/05/14 09:20:39;;;;;;;7.95;5.32;;;19.20;99.90;;;;;;6195248;23;20040;-89
2023/05/14 09:23:05;;;;;;;8.13;4.60;;;19.30;99.90;;;;;;6195246;23;20026;-88
2023/05/14 09:25:31;;;;;;;7.28;5.00;;;19.30;99.90;;;;;;6194406;23;20475;-88
2023/05/14 09:27:57;;;;;;;9.85;5.07;;;19.40;99.90;;;;;;6219819;23;20032;-88
2023/05/14 09:30:25;;;;;;;6.90;5.00;;;19.50;99.90;;;;;;6194656;23;20030;-88
2023/05/14 09:32:53;;;;;;;8.40;5.13;;;19.60;99.90;;;;;;6198840;23;20008;-88
2023/05/14 09:35:21;;;;;;;7.57;4.50;;;19.70;99.90;;;;;;6269776;23;20011;-88
2023/05/14 09:37:53;;;;;;;7.22;4.60;;;19.70;99.90;;;;;;6220450;23;20023;-86
2023/05/14 09:40:20;;;;;;;7.70;4.50;;;19.80;99.90;;;;;;6219669;23;20004;-87
2023/05/14 09:42:47;;;;;;;7.00;4.50;;;19.80;99.90;;;;;;6246642;23;19996;-87
2023/05/14 09:45:13;;;;;;;7.28;5.00;;;19.90;99.90;;;;;;6170559;23;20450;-87
2023/05/14 09:47:39;;;;;;;8.00;4.68;;;19.80;99.90;;;;;;6194853;23;20000;-87
2023/05/14 09:50:05;;;;;;;9.57;4.40;;;19.90;99.90;;;;;;6194689;23;20487;-87
2023/05/14 09:52:32;;;;;;;7.03;4.53;;;19.90;99.90;;;;;;6219716;23;20490;-87
2023/05/14 09:54:58;;;;;;;7.38;4.53;;;20.00;99.90;;;;;;6219486;23;20056;-88
2023/05/14 09:57:25;;;;;;;7.57;4.95;;;20.10;99.90;;;;;;6194819;23;20012;-88
2023/05/14 09:59:51;;;;;;;6.15;4.30;;;20.10;99.90;;;;;;6194986;23;20017;-88
2023/05/14 10:02:25;;;;;;;8.45;4.55;;;20.20;99.90;;;;;;6170059;23;20051;-88
2023/05/14 10:04:53;;;;;;;8.98;4.25;;;20.30;99.90;;;;;;6195065;23;20079;-88
2023/05/14 10:07:26;;;;;;;6.07;4.22;;;20.30;99.90;;;;;;6220247;23;19996;-89
2023/05/14 10:10:00;;;;;;;6.35;4.10;;;20.40;99.90;;;;;;6221908;23;20004;-89
2023/05/14 10:12:32;;;;;;;6.63;3.55;;;20.50;99.90;;;;;;6221571;23;20481;-89
2023/05/14 10:15:02;;;;;;;5.50;3.58;;;20.50;99.90;;;;;;6222267;23;20004;-89
2023/05/14 10:17:31;;;;;;;6.72;3.53;;;20.60;99.90;;;;;;6217138;23;20348;-89
2023/05/14 10:19:58;;;;;;;8.57;3.45;;;20.60;99.90;;;;;;6216755;23;20428;-89
2023/05/14 10:22:30;;;;;;;5.95;3.75;;;20.70;99.90;;;;;;6192328;23;20072;-91
2023/05/14 10:24:56;;;;;;;6.00;3.63;;;20.80;99.90;;;;;;6217487;23;20000;-91
2023/05/14 10:27:22;;;;;;;5.88;3.50;;;20.80;99.90;;;;;;6192671;23;20084;-91
2023/05/14 10:29:53;;;;;;;6.60;3.60;;;20.90;99.90;;;;;;6192667;23;20083;-91
2023/05/14 10:32:19;;;;;;;;;;;20.90;99.90;;;;;;6219098;23;20009;-92
2023/05/14 10:34:45;;;;;;;9.57;5.30;;;21.00;99.90;;;;;;6192991;23;19913;-91
2023/05/14 10:37:14;;;;;;;7.03;4.43;;;21.00;99.90;;;;;;6218369;23;20008;-91
2023/05/14 10:39:40;;;;;;;11.00;4.95;;;21.10;99.90;;;;;;6195328;23;20016;-91
2023/05/14 10:42:07;;;;;;;10.73;4.40;;;21.20;99.90;;;;;;6221259;23;20423;-90
2023/05/14 10:44:34;;;;;;;7.80;4.47;;;21.30;99.90;;;;;;6192137;23;20001;-89
2023/05/14 10:47:01;;;;;;;6.93;4.30;;;21.30;99.90;;;;;;6216975;23;20328;-89
2023/05/14 10:49:27;;;;;;;8.25;4.30;;;21.40;99.90;;;;;;6217056;23;20000;-90
2023/05/14 10:51:53;;;;;;;8.65;4.50;;;21.50;99.90;;;;;;6167325;23;20432;-90
2023/05/14 10:54:19;;;;;;;6.82;4.53;;;21.50;99.90;;;;;;6192474;23;20015;-90
2023/05/14 10:56:48;;;;;;;7.93;4.32;;;21.60;99.90;;;;;;6167167;23;20012;-90
2023/05/14 10:59:16;;;;;;;6.43;4.47;;;21.60;99.90;;;;;;6194191;23;20008;-92
2023/05/14 11:01:42;;;;;;;6.03;4.22;;;21.60;99.90;;;;;;6233559;23;20004;-92
2023/05/14 11:04:08;;;;;;;7.18;4.30;;;21.60;99.90;;;;;;6182230;23;20009;-90
2023/05/14 11:06:36;;;;;;;8.10;4.20;;;21.60;99.90;;;;;;6180900;23;20008;-89
2023/05/14 11:09:02;;;;;;;7.65;4.50;;;21.60;99.90;;;;;;6227919;23;20036;-89
2023/05/14 11:11:28;;;;;;;6.55;4.63;;;21.60;99.90;;;;;;6177127;23;20451;-89
2023/05/14 11:13:55;;;;;;;7.97;4.45;;;21.60;99.90;;;;;;6202710;23;20008;-89
2023/05/14 11:16:22;;;;;;;8.50;4.53;;;21.60;99.90;;;;;;6173583;23;20520;-89
2023/05/14 11:18:59;;;;;;;9.32;4.78;;;21.60;99.90;;;;;;6191512;23;20008;-89
2023/05/14 11:21:24;;;;;;;9.50;4.63;;;21.50;99.90;;;;;;6216509;23;20004;-89
2023/05/14 11:23:50;;;;;;;8.63;4.85;;;21.50;99.90;;;;;;6166590;23;20155;-87
2023/05/14 11:26:16;;;;;;;8.48;5.72;;;21.50;99.90;;;;;;6191008;23;20032;-87
2023/05/14 11:28:43;;;;;;;7.68;5.53;;;21.50;99.90;;;;;;6166287;23;20015;-87
2023/05/14 11:31:09;;;;;;;11.00;5.85;;;21.40;99.90;;;;;;6197090;23;20011;-87
2023/05/14 11:33:34;;;;;;;8.50;5.22;;;21.40;99.90;;;;;;6217056;23;20015;-88
2023/05/14 11:36:00;;;;;;;10.40;5.38;;;21.40;99.90;;;;;;6217799;23;20024;-89
2023/05/14 11:38:26;;;;;;;10.25;5.50;;;21.50;99.90;;;;;;6166501;23;20008;-89
2023/05/14 11:40:52;;;;;;;12.40;5.60;;;21.40;99.90;;;;;;6166617;23;20009;-88
2023/05/14 11:43:18;;;;;;;7.40;5.32;;;21.40;99.90;;;;;;6216416;23;20011;-89
2023/05/14 11:45:52;;;;;;;10.35;5.93;;;21.50;99.90;;;;;;6192012;23;20388;-90
2023/05/14 11:48:21;;;;;;;9.30;4.93;;;21.50;99.90;;;;;;6220459;23;20056;-90
2023/05/14 11:50:48;;;;;;;7.00;5.13;;;21.50;99.90;;;;;;6222516;23;20000;-91
2023/05/14 11:53:43;;;;;;;9.20;5.60;;;21.50;99.90;;;;;;6167701;23;20013;-88
2023/05/14 11:56:10;;;;;;;7.38;4.55;;;21.50;99.90;;;;;;6185268;23;20004;-88
2023/05/14 11:58:35;;;;;;;7.47;4.55;;;21.60;99.90;;;;;;6166162;23;20015;-88
2023/05/14 12:01:01;;;;;;;14.00;4.18;;;21.60;99.90;;;;;;6166112;23;20518;-88
2023/05/14 12:03:29;;;;;;;6.28;3.85;;;21.60;99.90;;;;;;6190806;23;20008;-87
2023/05/14 12:05:58;;;;;;;7.45;3.85;;;21.70;99.90;;;;;;6216108;23;20335;-91
2023/05/14 12:08:30;;;;;;;8.07;3.63;;;21.70;99.90;;;;;;6191490;23;20004;-90
2023/05/14 12:10:58;;;;;;;6.82;3.60;;;21.70;99.90;;;;;;6192125;23;20039;-91
2023/05/14 12:13:30;;;;;;;6.40;3.35;;;21.70;99.90;;;;;;6191498;23;20305;-90
2023/05/14 12:15:59;;;;;;;4.70;3.15;;;21.70;99.90;;;;;;6218938;23;20012;-90
2023/05/14 12:18:30;;;;;;;6.78;3.30;;;21.70;99.90;;;;;;6221591;23;20455;-89
2023/05/14 12:21:01;;;;;;;6.28;2.90;;;21.80;99.90;;;;;;6221615;23;20038;-90
2023/05/14 12:23:29;;;;;;;4.88;3.00;;;21.80;99.90;;;;;;6232781;23;20024;-86
2023/05/14 12:26:04;;;;;;;7.00;3.58;;;21.80;99.90;;;;;;6242744;23;20076;-88
2023/05/14 12:28:31;;;;;;;8.95;4.72;;;21.80;99.90;;;;;;6242733;23;20411;-86
2023/05/14 12:30:57;;;;;;;10.27;5.20;;;21.80;99.90;;;;;;6241803;23;20032;-87
2023/05/14 12:33:25;;;;;;;9.60;5.40;;;21.90;99.90;;;;;;6241536;23;20004;-88
2023/05/14 12:36:00;;;;;;;8.40;5.13;;;21.90;99.90;;;;;;6192854;23;19997;-88